createdAt,value
2018-07-08T00:00:55.782Z,15.53
2018-07-08T00:05:59.389Z,15.49
2018-07-08T00:11:03.028Z,15.47
2018-07-08T00:16:06.660Z,15.41
2018-07-08T00:21:10.237Z,15.26
2018-07-08T00:26:13.877Z,15.25
2018-07-08T00:31:17.508Z,15.19
2018-07-08T00:36:21.101Z,15.11
2018-07-08T00:41:24.754Z,15.08
2018-07-08T00:46:28.331Z,15.06
2018-07-08T00:51:31.872Z,14.99
2018-07-08T00:56:35.452Z,14.90
2018-07-08T01:01:39.148Z,14.72
2018-07-08T01:06:42.720Z,14.59
2018-07-08T01:11:46.253Z,14.59
2018-07-08T01:16:49.926Z,14.39
2018-07-08T01:21:53.542Z,14.19
2018-07-08T01:26:58.115Z,13.86
2018-07-08T01:32:02.234Z,13.94
2018-07-08T01:37:06.244Z,13.83
2018-07-08T01:42:10.657Z,13.81
2018-07-08T01:47:14.233Z,13.67
2018-07-08T01:52:17.758Z,13.60
2018-07-08T01:57:21.421Z,13.53
2018-07-08T02:02:25.045Z,13.46
2018-07-08T02:07:29.518Z,13.41
2018-07-08T02:12:33.627Z,13.41
2018-07-08T02:17:37.510Z,13.36
2018-07-08T02:22:42.032Z,13.31
2018-07-08T02:27:45.686Z,13.21
2018-07-08T02:32:49.318Z,13.17
2018-07-08T02:37:53.029Z,13.09
2018-07-08T02:42:56.577Z,13.13
2018-07-08T02:48:00.930Z,13.17
2018-07-08T02:53:06.039Z,13.13
2018-07-08T02:58:09.897Z,13.02
2018-07-08T03:03:13.496Z,13.06
2018-07-08T03:08:17.118Z,13.03
2018-07-08T03:13:20.617Z,12.98
2018-07-08T03:18:24.448Z,13.00
2018-07-08T03:23:28.144Z,12.98
2018-07-08T03:28:32.053Z,12.86
2018-07-08T03:33:36.069Z,12.86
2018-07-08T03:38:39.744Z,12.84
2018-07-08T03:43:43.273Z,12.83
2018-07-08T03:48:47.073Z,12.85
2018-07-08T03:53:50.633Z,13.16
2018-07-08T03:58:55.744Z,13.18
2018-07-08T04:03:59.345Z,13.20
2018-07-08T04:09:02.986Z,13.26
2018-07-08T04:14:06.586Z,13.30
2018-07-08T04:19:10.448Z,13.41
2018-07-08T04:24:14.013Z,13.40
2018-07-08T04:29:17.901Z,13.39
2018-07-08T04:34:21.878Z,13.40
2018-07-08T04:39:25.442Z,13.38
2018-07-08T04:44:28.956Z,13.57
2018-07-08T04:49:32.556Z,13.77
2018-07-08T04:54:36.065Z,14.93
2018-07-08T04:59:39.935Z,16.71
2018-07-08T05:04:44.510Z,18.18
2018-07-08T05:09:48.224Z,18.62
2018-07-08T05:14:51.772Z,18.86
2018-07-08T05:19:55.385Z,18.65
2018-07-08T05:24:59.363Z,17.77
2018-07-08T05:30:03.336Z,16.68
2018-07-08T05:35:06.861Z,16.13
2018-07-08T05:40:10.542Z,15.73
2018-07-08T05:45:14.077Z,15.74
2018-07-08T05:50:18.262Z,15.68
2018-07-08T05:55:21.810Z,15.79
2018-07-08T06:00:33.962Z,15.82
2018-07-08T06:05:37.662Z,15.91
2018-07-08T06:10:41.725Z,16.02
2018-07-08T06:15:45.305Z,16.29
2018-07-08T06:20:49.077Z,16.28
2018-07-08T06:25:52.670Z,16.51
2018-07-08T06:30:56.333Z,16.73
2018-07-08T06:36:00.161Z,16.95
2018-07-08T06:41:03.778Z,17.31
2018-07-08T06:46:07.271Z,17.34
2018-07-08T06:51:10.934Z,17.46
2018-07-08T06:56:15.218Z,17.65
2018-07-08T07:01:19.480Z,18.01
2018-07-08T07:06:23.109Z,18.27
2018-07-08T07:11:26.688Z,18.28
2018-07-08T07:16:30.234Z,18.14
2018-07-08T07:21:33.867Z,18.16
2018-07-08T07:26:38.670Z,18.55
2018-07-08T07:31:42.341Z,18.85
2018-07-08T07:36:45.869Z,18.64
2018-07-08T07:41:49.412Z,18.98
2018-07-08T07:46:53.026Z,19.09
2018-07-08T07:51:56.607Z,18.92
2018-07-08T07:57:00.790Z,19.03
2018-07-08T08:02:04.360Z,19.21
2018-07-08T08:07:07.873Z,19.01
2018-07-08T08:12:11.474Z,19.24
2018-07-08T08:17:15.113Z,19.45
2018-07-08T08:22:18.694Z,19.70
2018-07-08T08:27:22.197Z,19.78
2018-07-08T08:32:25.787Z,19.79
2018-07-08T08:37:31.705Z,19.87
2018-07-08T08:42:36.049Z,20.07
2018-07-08T08:47:39.655Z,20.34
2018-07-08T08:52:43.591Z,20.31
2018-07-08T08:57:47.922Z,20.70
2018-07-08T09:02:52.285Z,20.90
2018-07-08T09:07:55.886Z,21.08
2018-07-08T09:12:59.711Z,21.54
2018-07-08T09:18:04.209Z,21.59
2018-07-08T09:23:08.395Z,21.45
2018-07-08T09:28:11.895Z,21.45
2018-07-08T09:33:15.743Z,21.79
2018-07-08T09:38:19.532Z,22.13
2018-07-08T09:43:23.090Z,22.25
2018-07-08T09:48:26.660Z,22.10
2018-07-08T09:53:30.360Z,21.92
2018-07-08T09:58:34.017Z,21.98
2018-07-08T10:03:37.571Z,22.22
2018-07-08T10:08:41.103Z,22.43
2018-07-08T10:13:44.761Z,22.24
2018-07-08T10:18:48.377Z,22.32
2018-07-08T10:23:51.970Z,22.51
2018-07-08T10:28:55.541Z,22.68
2018-07-08T10:34:00.963Z,22.96
2018-07-08T10:39:06.037Z,22.96
2018-07-08T10:44:11.677Z,23.12
2018-07-08T10:49:16.252Z,23.19
2018-07-08T10:54:20.262Z,23.75
2018-07-08T10:59:25.153Z,23.51
2018-07-08T11:04:30.530Z,23.54
2018-07-08T11:09:36.287Z,23.88
2018-07-08T11:14:41.725Z,23.88
2018-07-08T11:19:46.841Z,23.98
2018-07-08T11:24:51.613Z,23.73
2018-07-08T11:29:55.310Z,23.95
2018-07-08T11:34:59.922Z,24.18
2018-07-08T11:40:03.610Z,24.14
2018-07-08T11:45:07.710Z,23.78
2018-07-08T11:50:11.414Z,24.35
2018-07-08T11:55:16.055Z,24.56
2018-07-08T12:00:20.840Z,24.76
2018-07-08T12:05:24.441Z,24.47
2018-07-08T12:10:28.315Z,24.54
2018-07-08T12:15:31.795Z,24.80
2018-07-08T12:20:35.910Z,25.07
2018-07-08T12:25:39.415Z,25.26
2018-07-08T12:30:43.253Z,25.51
2018-07-08T12:35:47.057Z,25.36
2018-07-08T12:40:51.927Z,25.27
2018-07-08T12:45:56.313Z,25.56
2018-07-08T12:50:59.966Z,25.68
2018-07-08T12:56:04.069Z,25.72
2018-07-08T13:01:08.176Z,25.69
2018-07-08T13:06:11.894Z,25.59
2018-07-08T13:11:17.140Z,25.72
2018-07-08T13:16:20.897Z,25.87
2018-07-08T13:21:26.305Z,25.85
2018-07-08T13:26:29.879Z,25.95
2018-07-08T13:31:33.472Z,26.11
2018-07-08T13:36:38.093Z,26.16
2018-07-08T13:41:41.747Z,26.17
2018-07-08T13:46:45.297Z,26.22
2018-07-08T13:51:49.403Z,25.93
2018-07-08T13:56:53.637Z,26.00
2018-07-08T14:01:57.246Z,26.23
2018-07-08T14:07:01.601Z,26.43
2018-07-08T14:12:06.704Z,26.52
2018-07-08T14:17:12.146Z,26.33
2018-07-08T14:22:16.268Z,26.31
2018-07-08T14:27:19.797Z,26.61
2018-07-08T14:32:23.987Z,26.39
2018-07-08T14:37:27.571Z,26.49
2018-07-08T14:42:31.122Z,26.62
2018-07-08T14:47:35.982Z,26.63
2018-07-08T14:52:39.848Z,26.66
2018-07-08T14:57:43.390Z,26.53
2018-07-08T15:02:46.978Z,26.49
2018-07-08T15:07:50.540Z,26.31
2018-07-08T15:12:54.205Z,26.71
2018-07-08T15:17:58.247Z,26.50
2018-07-08T15:23:03.233Z,26.62
2018-07-08T15:28:07.968Z,26.49
2018-07-08T15:33:12.175Z,26.40
2018-07-08T15:38:15.995Z,26.63
2018-07-08T15:43:20.244Z,26.77
2018-07-08T15:48:24.187Z,26.83
2018-07-08T15:53:27.920Z,26.35
2018-07-08T15:58:31.426Z,26.68
2018-07-08T16:03:35.022Z,26.47
2018-07-08T16:08:39.206Z,26.50
2018-07-08T16:13:42.805Z,26.57
2018-07-08T16:18:47.016Z,26.38
2018-07-08T16:23:50.800Z,26.19
2018-07-08T16:28:54.347Z,26.29
2018-07-08T16:33:58.124Z,26.12
2018-07-08T16:39:01.853Z,26.08
2018-07-08T16:44:05.438Z,26.88
2018-07-08T16:49:09.933Z,28.69
2018-07-08T16:54:13.529Z,29.65
2018-07-08T16:59:17.444Z,29.89
2018-07-08T17:04:21.486Z,28.62
2018-07-08T17:09:25.051Z,27.80
2018-07-08T17:14:29.517Z,27.31
2018-07-08T17:19:33.076Z,27.14
2018-07-08T17:24:36.660Z,26.65
2018-07-08T17:29:40.232Z,26.24
2018-07-08T17:34:44.142Z,25.92
2018-07-08T17:39:47.686Z,25.85
2018-07-08T17:44:51.277Z,25.81
2018-07-08T17:49:55.346Z,25.56
2018-07-08T17:54:59.576Z,25.14
2018-07-08T18:00:03.525Z,25.00
2018-07-08T18:05:09.445Z,24.76
2018-07-08T18:10:13.522Z,24.69
2018-07-08T18:15:19.363Z,24.60
2018-07-08T18:20:22.885Z,24.53
2018-07-08T18:25:28.084Z,24.44
2018-07-08T18:30:42.691Z,24.34
2018-07-08T18:35:46.898Z,24.09
2018-07-08T18:40:51.290Z,23.96
2018-07-08T18:45:55.720Z,23.79
2018-07-08T18:50:59.908Z,23.67
2018-07-08T18:56:03.578Z,23.45
2018-07-08T19:01:07.286Z,23.30
2018-07-08T19:06:12.226Z,23.15
2018-07-08T19:11:15.764Z,22.99
2018-07-08T19:16:20.392Z,22.86
2018-07-08T19:21:23.959Z,22.64
2018-07-08T19:26:27.645Z,22.50
2018-07-08T19:31:32.349Z,22.33
2018-07-08T19:36:38.128Z,22.29
2018-07-08T19:41:42.289Z,22.13
2018-07-08T19:46:46.832Z,21.92
2018-07-08T19:51:50.711Z,21.90
2018-07-08T19:56:54.541Z,21.72
2018-07-08T20:01:58.450Z,21.71
2018-07-08T20:07:02.380Z,21.48
2018-07-08T20:12:06.421Z,21.23
2018-07-08T20:17:11.420Z,21.03
2018-07-08T20:22:18.088Z,20.86
2018-07-08T20:27:23.085Z,20.70
2018-07-08T20:32:27.677Z,20.62
2018-07-08T20:37:31.619Z,20.45
2018-07-08T20:42:37.073Z,20.37
2018-07-08T20:47:40.925Z,20.19
2018-07-08T20:52:45.271Z,19.99
2018-07-08T20:57:50.419Z,19.92
2018-07-08T21:02:54.629Z,19.74
2018-07-08T21:07:59.422Z,19.69
2018-07-08T21:13:03.146Z,19.62
2018-07-08T21:18:06.973Z,19.53
2018-07-08T21:23:10.519Z,19.39
2018-07-08T21:28:16.024Z,19.28
2018-07-08T21:33:19.546Z,19.16
2018-07-08T21:38:23.403Z,19.12
2018-07-08T21:43:28.124Z,19.09
2018-07-08T21:48:33.027Z,18.89
2018-07-08T21:53:37.516Z,18.80
2018-07-08T21:58:43.126Z,18.71
2018-07-08T22:03:48.565Z,18.67
2018-07-08T22:08:52.767Z,18.59
2018-07-08T22:13:57.674Z,18.46
2018-07-08T22:19:03.050Z,18.43
2018-07-08T22:24:06.693Z,18.32
2018-07-08T22:29:11.099Z,18.24
2018-07-08T22:34:14.906Z,18.13
2018-07-08T22:39:18.482Z,18.02
2018-07-08T22:44:23.031Z,17.99
2018-07-08T22:49:27.104Z,17.97
2018-07-08T22:54:30.821Z,17.86
2018-07-08T22:59:44.479Z,17.83
2018-07-08T23:04:49.822Z,17.68
2018-07-08T23:09:53.453Z,17.64
2018-07-08T23:14:57.031Z,17.53
2018-07-08T23:20:00.990Z,17.49
2018-07-08T23:25:04.532Z,17.50
2018-07-08T23:30:11.425Z,17.50
2018-07-08T23:35:15.009Z,17.39
2018-07-08T23:40:18.600Z,17.29
2018-07-08T23:45:23.073Z,17.16
2018-07-08T23:50:27.623Z,17.14
2018-07-08T23:55:31.587Z,17.01
